createdAt,value
2017-09-11T00:00:37.350Z,0
2017-09-11T00:01:38.036Z,0
2017-09-11T00:02:52.643Z,0
2017-09-11T00:03:37.732Z,0
2017-09-11T00:04:52.421Z,0
2017-09-11T00:05:38.072Z,0
2017-09-11T00:06:38.095Z,0
2017-09-11T00:07:38.121Z,0
2017-09-11T00:08:38.175Z,0
2017-09-11T00:09:37.551Z,0
2017-09-11T00:10:38.172Z,0
2017-09-11T00:11:38.235Z,0
2017-09-11T00:12:37.922Z,0
2017-09-11T00:13:37.319Z,0
2017-09-11T00:14:38.262Z,0
2017-09-11T00:15:52.924Z,0
2017-09-11T00:16:38.321Z,0
2017-09-11T00:17:38.335Z,0
2017-09-11T00:19:38.363Z,0
2017-09-11T00:20:38.405Z,0
2017-09-11T00:21:37.806Z,0
2017-09-11T00:22:38.150Z,0
2017-09-11T00:23:37.843Z,0
2017-09-11T00:24:38.496Z,0
2017-09-11T00:25:37.893Z,0
2017-09-11T00:26:38.540Z,0
2017-09-11T00:27:38.540Z,0
2017-09-11T00:28:37.970Z,0
2017-09-11T00:29:38.608Z,0
2017-09-11T00:30:38.637Z,0
2017-09-11T00:31:38.340Z,0
2017-09-11T00:32:38.349Z,0
2017-09-11T00:33:38.067Z,0
2017-09-11T00:34:38.402Z,0
2017-09-11T00:35:38.406Z,0
2017-09-11T00:36:53.384Z,0
2017-09-11T00:37:38.462Z,0
2017-09-11T00:38:38.793Z,0
2017-09-11T00:39:38.501Z,0
2017-09-11T00:40:38.534Z,0
2017-09-11T00:41:53.465Z,0
2017-09-11T00:42:38.901Z,0
2017-09-11T00:43:38.606Z,0
2017-09-11T00:44:53.594Z,0
2017-09-11T00:45:38.949Z,0
2017-09-11T00:46:53.575Z,0
2017-09-11T00:47:38.679Z,0
2017-09-11T00:49:39.031Z,0
2017-09-11T00:50:53.661Z,0
2017-09-11T00:51:39.079Z,0
2017-09-11T00:52:53.709Z,0
2017-09-11T00:53:39.117Z,0
2017-09-11T00:56:39.163Z,0
2017-09-11T00:57:38.894Z,0
2017-09-11T00:58:38.910Z,0
2017-09-11T00:59:38.940Z,0
2017-09-11T01:00:38.973Z,0
2017-09-11T01:01:53.921Z,0
2017-09-11T01:02:53.617Z,0
2017-09-11T01:03:39.025Z,0
2017-09-11T01:04:39.358Z,0
2017-09-11T01:05:39.077Z,0
2017-09-11T01:06:39.395Z,0
2017-09-11T01:07:53.722Z,0
2017-09-11T01:08:53.436Z,0
2017-09-11T01:09:54.069Z,0
2017-09-11T01:10:39.465Z,0
2017-09-11T01:11:38.889Z,0
2017-09-11T01:12:39.533Z,0
2017-09-11T01:13:39.541Z,0
2017-09-11T01:15:39.594Z,0
2017-09-11T01:16:39.303Z,0
2017-09-11T01:17:38.709Z,0
2017-09-11T01:18:39.339Z,0
2017-09-11T01:19:39.367Z,0
2017-09-11T01:20:39.706Z,0
2017-09-11T01:21:54.032Z,0
2017-09-11T01:22:39.430Z,0
2017-09-11T01:23:39.767Z,0
2017-09-11T01:25:08.713Z,0
2017-09-11T01:25:39.819Z,0
2017-09-11T01:26:39.518Z,0
2017-09-11T01:27:39.553Z,0
2017-09-11T01:28:39.559Z,0
2017-09-11T01:29:54.520Z,0
2017-09-11T01:30:39.933Z,0
2017-09-11T01:31:39.643Z,0
2017-09-11T01:32:39.972Z,0
2017-09-11T01:33:39.661Z,0
2017-09-11T01:34:40.009Z,0
2017-09-11T01:35:40.020Z,0
2017-09-11T01:36:39.413Z,0
2017-09-11T01:37:40.064Z,0
2017-09-11T01:38:54.401Z,0
2017-09-11T01:39:54.725Z,0
2017-09-11T01:42:40.230Z,0
2017-09-11T01:44:40.215Z,0
2017-09-11T01:45:40.255Z,0
2017-09-11T01:46:39.964Z,0
2017-09-11T01:47:40.285Z,0
2017-09-11T01:48:40.292Z,0
2017-09-11T01:49:40.312Z,0
2017-09-11T01:50:40.352Z,0
2017-09-11T01:51:54.982Z,0
2017-09-11T01:52:55.022Z,0
2017-09-11T01:53:40.114Z,0
2017-09-11T01:54:40.448Z,0
2017-09-11T01:55:40.458Z,0
2017-09-11T01:56:40.473Z,0
2017-09-11T01:57:40.182Z,0
2017-09-11T01:58:40.514Z,0
2017-09-11T01:59:40.230Z,0
2017-09-11T02:00:54.857Z,0
2017-09-11T02:01:40.596Z,0
2017-09-11T02:02:40.295Z,0
2017-09-11T02:03:40.334Z,0
2017-09-11T02:04:40.647Z,0
2017-09-11T02:05:40.669Z,0
2017-09-11T02:06:40.746Z,0
2017-09-11T02:07:40.713Z,0
2017-09-11T02:08:55.043Z,0
2017-09-11T02:09:55.062Z,0
2017-09-11T02:10:40.460Z,0
2017-09-11T02:12:10.031Z,0
2017-09-11T02:12:40.822Z,0
2017-09-11T02:13:40.839Z,0
2017-09-11T02:14:40.540Z,0
2017-09-11T02:15:40.886Z,0
2017-09-11T02:16:40.892Z,0
2017-09-11T02:17:40.616Z,0
2017-09-11T02:18:41.009Z,0
2017-09-11T02:19:40.977Z,0
2017-09-11T02:20:40.672Z,0
2017-09-11T02:21:41.014Z,0
2017-09-11T02:22:41.040Z,0
2017-09-11T02:23:41.049Z,0
2017-09-11T02:24:41.063Z,0
2017-09-11T02:25:41.085Z,0
2017-09-11T02:26:41.162Z,0
2017-09-11T02:28:10.061Z,0
2017-09-11T02:28:41.164Z,0
2017-09-11T02:30:55.823Z,0
2017-09-11T02:31:41.255Z,0
2017-09-11T02:32:55.852Z,0
2017-09-11T02:33:41.269Z,0
2017-09-11T02:34:55.911Z,0
2017-09-11T02:35:41.004Z,0
2017-09-11T02:36:41.334Z,0
2017-09-11T02:37:41.042Z,0
2017-09-11T02:39:41.102Z,0
2017-09-11T02:40:41.096Z,0
2017-09-11T02:41:40.819Z,0
2017-09-11T02:42:41.141Z,0
2017-09-11T02:43:56.099Z,0
2017-09-11T02:44:40.924Z,0
2017-09-11T02:45:41.232Z,0
2017-09-11T02:46:41.227Z,0
2017-09-11T02:47:41.261Z,0
2017-09-11T02:48:41.582Z,0
2017-09-11T02:49:55.601Z,0
2017-09-11T02:50:41.642Z,0
2017-09-11T02:51:41.673Z,0
2017-09-11T02:52:41.355Z,0
2017-09-11T02:53:56.015Z,0
2017-09-11T02:54:41.397Z,0
2017-09-11T02:55:41.417Z,0
2017-09-11T02:57:41.783Z,0
2017-09-11T02:58:41.179Z,0
2017-09-11T03:00:11.070Z,0
2017-09-11T03:00:41.226Z,0
2017-09-11T03:01:41.846Z,0
2017-09-11T03:02:41.886Z,0
2017-09-11T03:03:41.594Z,0
2017-09-11T03:04:41.933Z,0
2017-09-11T03:05:41.945Z,0
2017-09-11T03:06:41.957Z,0
2017-09-11T03:08:56.320Z,0
2017-09-11T03:09:56.024Z,0
2017-09-11T03:10:41.746Z,0
2017-09-11T03:11:42.064Z,0
2017-09-11T03:12:42.113Z,0
2017-09-11T03:13:42.117Z,0
2017-09-11T03:14:56.456Z,0
2017-09-11T03:15:41.856Z,0
2017-09-11T03:16:42.214Z,0
2017-09-11T03:17:41.895Z,0
2017-09-11T03:18:56.853Z,0
2017-09-11T03:19:41.642Z,0
2017-09-11T03:20:42.276Z,0
2017-09-11T03:21:41.985Z,0
2017-09-11T03:22:42.066Z,0
2017-09-11T03:23:42.023Z,0
2017-09-11T03:24:42.087Z,0
2017-09-11T03:25:56.688Z,0
2017-09-11T03:26:42.409Z,0
2017-09-11T03:27:42.115Z,0
2017-09-11T03:28:42.499Z,0
2017-09-11T03:29:41.838Z,0
2017-09-11T03:30:42.480Z,0
2017-09-11T03:32:56.841Z,0
2017-09-11T03:33:57.160Z,0
2017-09-11T03:34:56.867Z,0
2017-09-11T03:35:42.585Z,0
2017-09-11T03:36:42.608Z,0
2017-09-11T03:37:42.303Z,0
2017-09-11T03:38:42.661Z,0
2017-09-11T03:39:42.359Z,0
2017-09-11T03:40:42.708Z,0
2017-09-11T03:41:42.705Z,0
2017-09-11T03:42:42.119Z,0
2017-09-11T03:43:42.459Z,0
2017-09-11T03:45:42.816Z,0
2017-09-11T03:47:42.216Z,0
2017-09-11T03:48:42.839Z,0
2017-09-11T03:49:42.874Z,0
2017-09-11T03:50:57.524Z,0
2017-09-11T03:51:42.628Z,0
2017-09-11T03:52:42.651Z,0
2017-09-11T03:53:42.987Z,0
2017-09-11T03:54:43.001Z,0
2017-09-11T03:55:42.386Z,0
2017-09-11T03:56:43.035Z,0
2017-09-11T03:57:57.047Z,0
2017-09-11T03:58:57.688Z,0
2017-09-11T03:59:43.111Z,0
2017-09-11T04:00:43.098Z,0
2017-09-11T04:02:57.478Z,0
2017-09-11T04:03:42.580Z,0
2017-09-11T04:04:42.904Z,0
2017-09-11T04:05:43.216Z,0
2017-09-11T04:06:43.297Z,0
2017-09-11T04:07:42.952Z,0
2017-09-11T04:08:43.284Z,0
2017-09-11T04:09:43.312Z,0
2017-09-11T04:10:57.951Z,0
2017-09-11T04:11:43.363Z,0
2017-09-11T04:12:43.058Z,0
2017-09-11T04:13:43.075Z,0
2017-09-11T04:14:43.415Z,0
2017-09-11T04:15:43.133Z,0
2017-09-11T04:16:43.475Z,0
2017-09-11T04:17:58.079Z,0
2017-09-11T04:18:57.810Z,0
2017-09-11T04:19:43.516Z,0
2017-09-11T04:20:43.583Z,0
2017-09-11T04:21:42.941Z,0
2017-09-11T04:22:43.584Z,5
2017-09-11T04:23:43.588Z,5
2017-09-11T04:24:43.628Z,5
2017-09-11T04:25:43.336Z,5
2017-09-11T04:26:43.676Z,5
2017-09-11T04:27:43.393Z,5
2017-09-11T04:28:43.395Z,5
2017-09-11T04:29:43.410Z,5
2017-09-11T04:30:43.443Z,10
2017-09-11T04:31:43.451Z,10
2017-09-11T04:32:43.794Z,10
2017-09-11T04:33:43.823Z,10
2017-09-11T04:34:58.456Z,15
2017-09-11T04:35:43.850Z,15
2017-09-11T04:36:43.873Z,15
2017-09-11T04:37:43.583Z,15
2017-09-11T04:38:43.626Z,20
2017-09-11T04:39:43.953Z,20
2017-09-11T04:40:43.972Z,20
2017-09-11T04:41:58.286Z,20
2017-09-11T04:42:43.690Z,25
2017-09-11T04:43:44.028Z,25
2017-09-11T04:44:44.050Z,25
2017-09-11T04:45:43.767Z,30
2017-09-11T04:47:44.120Z,30
2017-09-11T04:48:43.812Z,35
2017-09-11T04:49:58.776Z,35
2017-09-11T04:50:43.855Z,35
2017-09-11T04:51:44.194Z,40
2017-09-11T04:52:43.905Z,40
2017-09-11T04:53:43.925Z,40
2017-09-11T04:54:44.257Z,45
2017-09-11T04:55:44.278Z,45
2017-09-11T04:56:44.307Z,45
2017-09-11T04:57:44.321Z,45
2017-09-11T04:58:44.036Z,45
2017-09-11T04:59:44.055Z,50
2017-09-11T05:00:44.380Z,50
2017-09-11T05:01:44.396Z,50
2017-09-11T05:02:44.450Z,50
2017-09-11T05:03:44.127Z,50
2017-09-11T05:04:44.156Z,55
2017-09-11T05:05:44.189Z,55
2017-09-11T05:06:44.197Z,55
2017-09-11T05:07:44.572Z,55
2017-09-11T05:09:44.267Z,60
2017-09-11T05:11:44.619Z,70
2017-09-11T05:12:58.952Z,95
2017-09-11T05:14:58.994Z,65
2017-09-11T05:16:44.737Z,70
2017-09-11T05:17:44.736Z,70
2017-09-11T05:18:59.391Z,75
2017-09-11T05:19:44.779Z,70
2017-09-11T05:20:44.817Z,80
2017-09-11T05:21:59.484Z,90
2017-09-11T05:22:44.555Z,90
2017-09-11T05:23:59.482Z,85
2017-09-11T05:24:59.510Z,85
2017-09-11T05:25:44.299Z,95
2017-09-11T05:26:44.940Z,100
2017-09-11T05:28:44.679Z,80
2017-09-11T05:29:44.394Z,85
2017-09-11T05:30:45.032Z,85
2017-09-11T05:31:44.737Z,85
2017-09-11T05:32:44.142Z,90
2017-09-11T05:33:45.074Z,90
2017-09-11T05:34:45.104Z,90
2017-09-11T05:35:44.839Z,90
2017-09-11T05:36:44.853Z,95
2017-09-11T05:37:59.472Z,105
2017-09-11T05:38:59.805Z,110
2017-09-11T05:39:59.844Z,100
2017-09-11T05:40:45.252Z,100
2017-09-11T05:41:44.959Z,100
2017-09-11T05:43:59.616Z,165
2017-09-11T05:44:45.032Z,115
2017-09-11T05:46:44.756Z,130
2017-09-11T05:47:45.382Z,175
2017-09-11T05:48:45.446Z,135
2017-09-11T05:49:45.180Z,115
2017-09-11T05:50:45.456Z,135
2017-09-11T05:51:44.858Z,155
2017-09-11T05:52:45.505Z,280
2017-09-11T05:54:14.759Z,780
2017-09-11T05:54:59.848Z,840
2017-09-11T05:55:45.277Z,780
2017-09-11T05:56:44.975Z,810
2017-09-11T05:57:45.008Z,825
2017-09-11T05:58:45.655Z,830
2017-09-11T05:59:45.035Z,825
2017-09-11T06:00:45.070Z,815
2017-09-11T06:01:45.447Z,820
2017-09-11T06:03:00.033Z,795
2017-09-11T06:04:00.382Z,740
2017-09-11T06:04:45.785Z,725
2017-09-11T06:05:45.825Z,710
2017-09-11T06:06:45.833Z,705
2017-09-11T06:07:45.905Z,665
2017-09-11T06:08:45.898Z,640
2017-09-11T06:10:00.535Z,605
2017-09-11T06:10:45.325Z,585
2017-09-11T06:11:45.968Z,555
2017-09-11T06:12:46.014Z,510
2017-09-11T06:14:00.638Z,490
2017-09-11T06:14:46.062Z,500
2017-09-11T06:15:45.773Z,515
2017-09-11T06:16:46.107Z,510
2017-09-11T06:17:46.155Z,500
2017-09-11T06:18:45.856Z,500
2017-09-11T06:19:45.884Z,515
2017-09-11T06:20:46.231Z,520
2017-09-11T06:21:46.249Z,525
2017-09-11T06:22:46.332Z,525
2017-09-11T06:23:46.300Z,535
2017-09-11T06:25:00.970Z,555
2017-09-11T06:25:46.429Z,570
2017-09-11T06:26:46.413Z,620
2017-09-11T06:28:01.064Z,1070
2017-09-11T06:28:46.468Z,1620
2017-09-11T06:29:46.498Z,2085
2017-09-11T06:30:46.221Z,1895
2017-09-11T06:31:46.625Z,1745
2017-09-11T06:32:46.283Z,1555
2017-09-11T06:33:46.327Z,1435
2017-09-11T06:34:46.363Z,1235
2017-09-11T06:35:45.772Z,1070
2017-09-11T06:36:46.407Z,1355
2017-09-11T06:37:46.764Z,1420
2017-09-11T06:38:46.535Z,1410
2017-09-11T06:39:46.839Z,1425
2017-09-11T06:42:01.503Z,1300
2017-09-11T06:42:46.935Z,1270
2017-09-11T06:44:01.564Z,1090
2017-09-11T06:44:46.683Z,960
2017-09-11T06:45:47.013Z,1295
2017-09-11T06:47:01.684Z,1275
2017-09-11T06:47:47.082Z,1235
2017-09-11T06:48:46.505Z,1285
2017-09-11T06:49:46.845Z,1440
2017-09-11T06:51:01.501Z,1440
2017-09-11T06:51:46.928Z,1360
2017-09-11T06:52:47.256Z,1300
2017-09-11T06:53:47.284Z,1265
2017-09-11T06:54:46.999Z,1295
2017-09-11T06:55:47.289Z,1260
2017-09-11T06:57:16.322Z,980
2017-09-11T06:57:46.792Z,1150
2017-09-11T06:58:47.167Z,1425
2017-09-11T06:59:47.492Z,1215
2017-09-11T07:00:47.216Z,1320
2017-09-11T07:02:01.868Z,815
2017-09-11T07:02:47.602Z,1125
2017-09-11T07:03:47.313Z,1145
2017-09-11T07:04:47.673Z,1395
2017-09-11T07:05:47.712Z,1475
2017-09-11T07:06:47.727Z,1445
2017-09-11T07:07:47.762Z,1330
2017-09-11T07:08:47.778Z,1070
2017-09-11T07:10:47.542Z,1305
2017-09-11T07:12:02.516Z,1355
2017-09-11T07:13:02.244Z,1300
2017-09-11T07:13:47.958Z,1095
2017-09-11T07:15:02.599Z,1140
2017-09-11T07:15:47.706Z,715
2017-09-11T07:16:48.071Z,395
2017-09-11T07:17:48.101Z,750
2017-09-11T07:18:48.122Z,665
2017-09-11T07:19:48.157Z,665
2017-09-11T07:20:48.192Z,355
2017-09-11T07:21:48.212Z,515
2017-09-11T07:23:02.872Z,1090
2017-09-11T07:23:48.282Z,990
2017-09-11T07:24:48.024Z,920
2017-09-11T07:25:48.361Z,1245
2017-09-11T07:27:02.703Z,1080
2017-09-11T07:27:48.093Z,640
2017-09-11T07:30:03.094Z,255
2017-09-11T07:30:48.517Z,250
2017-09-11T07:31:48.563Z,240
2017-09-11T07:33:02.883Z,550
2017-09-11T07:34:03.283Z,490
2017-09-11T07:34:48.634Z,490
2017-09-11T07:35:48.361Z,205
2017-09-11T07:37:03.018Z,195
2017-09-11T07:38:03.047Z,195
2017-09-11T07:38:48.768Z,225
2017-09-11T07:39:48.500Z,620
2017-09-11T07:41:03.148Z,635
2017-09-11T07:42:03.479Z,590
2017-09-11T07:42:48.265Z,520
2017-09-11T07:43:48.610Z,640
2017-09-11T07:45:03.560Z,620
2017-09-11T07:45:48.968Z,695
2017-09-11T07:46:48.999Z,875
2017-09-11T07:48:03.644Z,535
2017-09-11T07:48:48.759Z,485
2017-09-11T07:49:49.111Z,360
2017-09-11T07:51:48.845Z,500
2017-09-11T07:52:49.167Z,765
2017-09-11T07:53:48.909Z,750
2017-09-11T07:55:03.875Z,490
2017-09-11T07:55:49.287Z,560
2017-09-11T07:57:03.607Z,335
2017-09-11T07:57:49.320Z,290
2017-09-11T07:59:03.983Z,730
2017-09-11T08:00:03.395Z,515
2017-09-11T08:00:49.116Z,645
2017-09-11T08:01:49.460Z,550
2017-09-11T08:03:03.780Z,285
2017-09-11T08:03:49.205Z,255
2017-09-11T08:05:03.865Z,250
2017-09-11T08:05:49.251Z,250
2017-09-11T08:07:49.639Z,235
2017-09-11T08:08:49.343Z,265
2017-09-11T08:09:49.388Z,255
2017-09-11T08:11:04.330Z,245
2017-09-11T08:11:49.758Z,235
2017-09-11T08:12:49.770Z,225
2017-09-11T08:13:49.499Z,220
2017-09-11T08:14:49.522Z,230
2017-09-11T08:15:49.552Z,230
2017-09-11T08:16:49.944Z,220
2017-09-11T08:17:49.917Z,215
2017-09-11T08:18:49.952Z,215
2017-09-11T08:19:49.996Z,215
2017-09-11T08:20:49.683Z,265
2017-09-11T08:21:49.717Z,255
2017-09-11T08:22:49.754Z,215
2017-09-11T08:23:49.780Z,225
2017-09-11T08:24:49.803Z,255
2017-09-11T08:25:49.828Z,215
2017-09-11T08:26:49.862Z,255
2017-09-11T08:27:49.951Z,330
2017-09-11T08:28:49.910Z,240
2017-09-11T08:29:50.266Z,235
2017-09-11T08:30:49.658Z,235
2017-09-11T08:32:50.333Z,205
2017-09-11T08:33:50.376Z,235
2017-09-11T08:35:50.409Z,195
2017-09-11T08:36:50.133Z,200
2017-09-11T08:37:50.474Z,190
2017-09-11T08:38:50.188Z,200
2017-09-11T08:40:04.833Z,195
2017-09-11T08:40:50.251Z,200
2017-09-11T08:41:50.260Z,195
2017-09-11T08:42:50.314Z,195
2017-09-11T08:43:50.070Z,195
2017-09-11T08:44:50.653Z,190
2017-09-11T08:45:50.379Z,190
2017-09-11T08:46:50.715Z,190
2017-09-11T08:48:04.419Z,195
2017-09-11T08:48:50.142Z,200
2017-09-11T08:49:50.485Z,190
2017-09-11T08:50:50.817Z,185
2017-09-11T08:51:50.548Z,190
2017-09-11T08:52:50.879Z,200
2017-09-11T08:53:50.593Z,190
2017-09-11T08:54:50.918Z,195
2017-09-11T08:55:51.007Z,190
2017-09-11T08:56:50.979Z,175
2017-09-11T08:57:51.000Z,175
2017-09-11T08:58:51.039Z,175
2017-09-11T08:59:51.070Z,170
2017-09-11T09:00:50.774Z,170
2017-09-11T09:01:51.106Z,165
2017-09-11T09:02:51.133Z,165
2017-09-11T09:04:05.469Z,165
2017-09-11T09:04:51.208Z,170
2017-09-11T09:06:05.530Z,160
2017-09-11T09:06:51.245Z,160
2017-09-11T09:07:51.274Z,160
2017-09-11T09:08:50.679Z,165
2017-09-11T09:09:51.320Z,165
2017-09-11T09:11:05.961Z,170
2017-09-11T09:12:05.680Z,170
2017-09-11T09:12:51.112Z,170
2017-09-11T09:13:51.425Z,165
2017-09-11T09:15:51.491Z,170
2017-09-11T09:16:51.494Z,170
2017-09-11T09:17:51.531Z,175
2017-09-11T09:18:51.568Z,180
2017-09-11T09:20:06.189Z,175
2017-09-11T09:21:06.244Z,180
2017-09-11T09:21:51.333Z,180
2017-09-11T09:22:51.658Z,185
2017-09-11T09:23:51.377Z,185
2017-09-11T09:24:51.402Z,190
2017-09-11T09:25:51.727Z,195
2017-09-11T09:26:51.454Z,210
2017-09-11T09:27:51.786Z,210
2017-09-11T09:28:51.820Z,210
2017-09-11T09:30:06.462Z,200
2017-09-11T09:30:51.555Z,200
2017-09-11T09:31:51.917Z,210
2017-09-11T09:32:51.608Z,210
2017-09-11T09:33:51.665Z,225
2017-09-11T09:35:06.273Z,250
2017-09-11T09:36:06.621Z,250
2017-09-11T09:36:51.728Z,250
2017-09-11T09:37:51.760Z,245
2017-09-11T09:38:52.087Z,220
2017-09-11T09:39:52.185Z,215
2017-09-11T09:40:52.120Z,220
2017-09-11T09:41:51.853Z,235
2017-09-11T09:42:51.896Z,295
2017-09-11T09:43:51.904Z,260
2017-09-11T09:45:52.257Z,240
2017-09-11T09:47:52.318Z,285
2017-09-11T09:48:52.069Z,340
2017-09-11T09:49:51.738Z,315
2017-09-11T09:50:52.420Z,270
2017-09-11T09:53:07.112Z,240
2017-09-11T09:54:06.798Z,215
2017-09-11T09:54:52.525Z,200
2017-09-11T09:55:52.577Z,190
2017-09-11T09:56:52.572Z,195
2017-09-11T09:57:52.598Z,225
2017-09-11T09:58:52.615Z,210
2017-09-11T09:59:52.641Z,255
2017-09-11T10:00:52.656Z,255
2017-09-11T10:01:52.386Z,280
2017-09-11T10:02:52.420Z,290
2017-09-11T10:03:52.458Z,280
2017-09-11T10:04:52.467Z,235
2017-09-11T10:05:52.494Z,295
2017-09-11T10:07:21.775Z,270
2017-09-11T10:07:52.875Z,285
2017-09-11T10:08:52.574Z,280
2017-09-11T10:09:52.624Z,290
2017-09-11T10:10:52.945Z,280
2017-09-11T10:11:52.644Z,285
2017-09-11T10:12:52.708Z,275
2017-09-11T10:13:52.737Z,240
2017-09-11T10:14:53.049Z,280
2017-09-11T10:15:52.475Z,305
2017-09-11T10:17:07.433Z,300
2017-09-11T10:18:07.444Z,295
2017-09-11T10:18:52.861Z,290
2017-09-11T10:19:52.564Z,295
2017-09-11T10:20:53.219Z,300
2017-09-11T10:21:52.946Z,290
2017-09-11T10:23:07.590Z,295
2017-09-11T10:24:52.717Z,175
2017-09-11T10:26:07.674Z,250
2017-09-11T10:26:53.075Z,145
2017-09-11T10:27:53.104Z,285
2017-09-11T10:28:53.454Z,280
2017-09-11T10:29:53.202Z,170
2017-09-11T10:31:08.117Z,290
2017-09-11T10:32:22.803Z,310
2017-09-11T10:32:53.242Z,280
2017-09-11T10:33:52.964Z,305
2017-09-11T10:35:08.232Z,305
2017-09-11T10:36:07.959Z,290
2017-09-11T10:37:07.970Z,290
2017-09-11T10:37:53.709Z,250
2017-09-11T10:39:53.750Z,255
2017-09-11T10:40:53.785Z,260
2017-09-11T10:41:53.195Z,230
2017-09-11T10:42:53.533Z,200
2017-09-11T10:43:53.550Z,205
2017-09-11T10:44:53.277Z,190
2017-09-11T10:46:08.227Z,215
2017-09-11T10:46:53.017Z,205
2017-09-11T10:48:08.294Z,180
2017-09-11T10:48:53.379Z,175
2017-09-11T10:49:54.026Z,180
2017-09-11T10:50:53.744Z,220
2017-09-11T10:52:08.763Z,200
2017-09-11T10:52:53.485Z,210
2017-09-11T10:53:54.148Z,210
2017-09-11T10:55:08.472Z,215
2017-09-11T10:55:53.881Z,215
2017-09-11T10:57:53.945Z,225
2017-09-11T10:59:08.897Z,215
2017-09-11T10:59:54.310Z,210
2017-09-11T11:00:54.339Z,215
2017-09-11T11:01:54.045Z,210
2017-09-11T11:02:54.379Z,205
2017-09-11T11:05:54.153Z,170
2017-09-11T11:07:09.115Z,170
2017-09-11T11:07:54.523Z,170
2017-09-11T11:08:54.551Z,170
2017-09-11T11:10:09.186Z,170
2017-09-11T11:10:54.285Z,175
2017-09-11T11:11:54.018Z,170
2017-09-11T11:12:54.650Z,170
2017-09-11T11:13:54.372Z,180
2017-09-11T11:15:09.320Z,185
2017-09-11T11:15:54.776Z,185
2017-09-11T11:16:54.444Z,185
2017-09-11T11:18:09.400Z,185
2017-09-11T11:18:54.198Z,190
2017-09-11T11:19:54.225Z,195
2017-09-11T11:20:54.890Z,190
2017-09-11T11:22:09.197Z,190
2017-09-11T11:22:54.601Z,195
2017-09-11T11:23:54.956Z,195
2017-09-11T11:24:54.987Z,200
2017-09-11T11:26:09.629Z,195
2017-09-11T11:27:09.344Z,195
2017-09-11T11:27:54.750Z,190
2017-09-11T11:28:55.098Z,185
2017-09-11T11:29:54.484Z,180
2017-09-11T11:30:54.830Z,175
2017-09-11T11:32:09.474Z,175
2017-09-11T11:33:09.827Z,180
2017-09-11T11:33:54.911Z,185
2017-09-11T11:34:54.945Z,185
2017-09-11T11:35:54.947Z,190
2017-09-11T11:37:09.923Z,195
2017-09-11T11:37:55.015Z,195
2017-09-11T11:38:55.046Z,190
2017-09-11T11:39:55.395Z,180
2017-09-11T11:40:55.097Z,175
2017-09-11T11:42:24.044Z,170
2017-09-11T11:42:55.445Z,170
2017-09-11T11:44:09.797Z,175
2017-09-11T11:46:55.560Z,150
2017-09-11T11:48:10.211Z,140
2017-09-11T11:48:55.633Z,135
2017-09-11T11:50:55.380Z,130
2017-09-11T11:52:55.406Z,145
2017-09-11T11:54:55.783Z,170
2017-09-11T11:55:55.866Z,165
2017-09-11T11:56:55.522Z,160
2017-09-11T11:58:10.163Z,150
2017-09-11T11:59:10.522Z,155
2017-09-11T11:59:55.338Z,160
2017-09-11T12:00:55.938Z,170
2017-09-11T12:01:55.964Z,175
2017-09-11T12:02:55.713Z,185
2017-09-11T12:03:56.063Z,185
2017-09-11T12:04:55.436Z,185
2017-09-11T12:05:56.096Z,180
2017-09-11T12:06:55.792Z,175
2017-09-11T12:07:56.133Z,165
2017-09-11T12:08:56.156Z,165
2017-09-11T12:09:56.199Z,170
2017-09-11T12:10:56.209Z,165
2017-09-11T12:11:55.616Z,170
2017-09-11T12:12:56.258Z,170
2017-09-11T12:14:10.907Z,175
2017-09-11T12:14:56.001Z,175
2017-09-11T12:15:56.022Z,175
2017-09-11T12:16:56.069Z,180
2017-09-11T12:17:56.399Z,180
2017-09-11T12:18:56.437Z,175
2017-09-11T12:20:11.061Z,170
2017-09-11T12:20:56.478Z,170
2017-09-11T12:21:56.500Z,175
2017-09-11T12:23:11.140Z,175
2017-09-11T12:23:56.249Z,175
2017-09-11T12:24:56.263Z,175
2017-09-11T12:25:56.609Z,170
2017-09-11T12:26:56.374Z,165
2017-09-11T12:27:56.044Z,155
2017-09-11T12:28:56.380Z,150
2017-09-11T12:30:11.338Z,150
2017-09-11T12:30:56.437Z,150
2017-09-11T12:32:11.379Z,145
2017-09-11T12:32:56.493Z,145
2017-09-11T12:33:56.811Z,145
2017-09-11T12:34:56.543Z,140
2017-09-11T12:35:56.870Z,140
2017-09-11T12:36:56.598Z,145
2017-09-11T12:37:56.932Z,145
2017-09-11T12:38:56.957Z,145
2017-09-11T12:39:56.684Z,145
2017-09-11T12:41:11.625Z,145
2017-09-11T12:41:56.717Z,150
2017-09-11T12:42:56.444Z,150
2017-09-11T12:43:56.480Z,150
2017-09-11T12:45:11.414Z,155
2017-09-11T12:45:56.528Z,160
2017-09-11T12:47:11.472Z,160
2017-09-11T12:47:56.892Z,160
2017-09-11T12:48:57.213Z,160
2017-09-11T12:51:11.891Z,155
2017-09-11T12:51:57.295Z,155
2017-09-11T12:52:57.318Z,155
2017-09-11T12:53:57.357Z,160
2017-09-11T12:55:57.414Z,155
2017-09-11T12:56:56.827Z,150
2017-09-11T12:57:57.449Z,155
2017-09-11T12:59:57.513Z,145
2017-09-11T13:00:57.535Z,145
2017-09-11T13:02:12.165Z,145
2017-09-11T13:02:57.265Z,140
2017-09-11T13:03:57.306Z,140
2017-09-11T13:05:12.237Z,135
2017-09-11T13:05:57.353Z,135
2017-09-11T13:07:12.314Z,135
2017-09-11T13:10:12.396Z,140
2017-09-11T13:10:57.477Z,140
2017-09-11T13:11:57.509Z,140
2017-09-11T13:12:57.235Z,145
2017-09-11T13:13:57.568Z,155
2017-09-11T13:14:57.897Z,170
2017-09-11T13:15:57.911Z,165
2017-09-11T13:17:12.589Z,170
2017-09-11T13:17:57.355Z,170
2017-09-11T13:19:58.036Z,170
2017-09-11T13:20:57.739Z,165
2017-09-11T13:21:57.801Z,165
2017-09-11T13:22:58.172Z,165
2017-09-11T13:23:58.124Z,160
2017-09-11T13:25:12.776Z,160
2017-09-11T13:26:12.502Z,180
2017-09-11T13:27:58.257Z,175
2017-09-11T13:29:12.887Z,180
2017-09-11T13:29:57.674Z,180
2017-09-11T13:30:57.713Z,185
2017-09-11T13:31:58.331Z,195
2017-09-11T13:33:27.309Z,175
2017-09-11T13:35:13.058Z,160
2017-09-11T13:36:13.054Z,150
2017-09-11T13:36:58.167Z,145
2017-09-11T13:38:57.909Z,130
2017-09-11T13:39:57.936Z,120
2017-09-11T13:41:12.878Z,120
2017-09-11T13:41:58.299Z,120
2017-09-11T13:42:58.007Z,130
2017-09-11T13:44:12.959Z,135
2017-09-11T13:44:58.376Z,150
2017-09-11T13:46:58.782Z,215
2017-09-11T13:47:58.784Z,180
2017-09-11T13:49:12.775Z,185
2017-09-11T13:49:58.806Z,195
2017-09-11T13:50:58.851Z,235
2017-09-11T13:51:58.875Z,235
2017-09-11T13:52:58.577Z,230
2017-09-11T13:53:58.938Z,160
2017-09-11T13:55:13.560Z,145
2017-09-11T13:55:58.972Z,135
2017-09-11T13:56:59.007Z,125
2017-09-11T13:58:13.326Z,115
2017-09-11T13:58:58.739Z,120
2017-09-11T13:59:59.059Z,120
2017-09-11T14:00:59.108Z,120
2017-09-11T14:01:59.130Z,110
2017-09-11T14:02:59.174Z,100
2017-09-11T14:03:58.885Z,95
2017-09-11T14:05:13.517Z,95
2017-09-11T14:05:59.267Z,95
2017-09-11T14:06:59.271Z,95
2017-09-11T14:07:59.271Z,105
2017-09-11T14:08:59.001Z,105
2017-09-11T14:09:59.332Z,110
2017-09-11T14:11:13.985Z,110
2017-09-11T14:11:59.076Z,110
2017-09-11T14:12:59.107Z,115
2017-09-11T14:13:59.117Z,115
2017-09-11T14:14:59.154Z,120
2017-09-11T14:15:59.192Z,130
2017-09-11T14:16:59.207Z,175
2017-09-11T14:17:59.538Z,185
2017-09-11T14:18:59.260Z,145
2017-09-11T14:20:13.921Z,140
2017-09-11T14:20:59.628Z,145
2017-09-11T14:21:59.339Z,145
2017-09-11T14:23:13.988Z,140
2017-09-11T14:24:59.411Z,125
2017-09-11T14:25:59.447Z,120
2017-09-11T14:26:59.469Z,120
2017-09-11T14:27:59.816Z,115
2017-09-11T14:28:59.830Z,115
2017-09-11T14:30:14.171Z,115
2017-09-11T14:30:59.278Z,120
2017-09-11T14:31:59.909Z,120
2017-09-11T14:32:59.649Z,125
2017-09-11T14:33:59.950Z,150
2017-09-11T14:34:59.990Z,140
2017-09-11T14:35:59.709Z,150
2017-09-11T14:36:59.720Z,180
2017-09-11T14:38:14.058Z,170
2017-09-11T14:39:00.085Z,170
2017-09-11T14:40:00.128Z,155
2017-09-11T14:41:00.146Z,145
2017-09-11T14:42:14.830Z,150
2017-09-11T14:42:59.595Z,180
2017-09-11T14:44:00.225Z,145
2017-09-11T14:45:00.261Z,125
2017-09-11T14:45:59.968Z,120
2017-09-11T14:47:14.916Z,115
2017-09-11T14:48:00.337Z,115
2017-09-11T14:49:00.040Z,115
2017-09-11T14:50:14.375Z,115
2017-09-11T14:50:59.785Z,120
2017-09-11T14:52:15.069Z,110
2017-09-11T14:54:14.789Z,105
2017-09-11T14:55:00.500Z,100
2017-09-11T14:55:59.912Z,95
2017-09-11T14:57:00.582Z,95
2017-09-11T14:58:00.594Z,90
2017-09-11T14:59:00.614Z,85
2017-09-11T15:00:15.262Z,85
2017-09-11T15:01:00.668Z,90
2017-09-11T15:02:15.001Z,80